Time;durP1;ratioP1;P1;durP2;ratioP2;P2;SDS_P1;SDS_P2;PMS_P1;PMS_P2;Temp;Humidity;BMP_temperature;BMP_pressure;BME280_temperature;BME280_humidity;BME280_pressure;Samples;Min_cycle;Max_cycle;Signal;HPM_P1;HPM_P2
2024/04/11 00:00:50;;;;;;;1.45;1.30;;;15.60;77.10;;;;;;5547586;25;20527;-75
2024/04/11 00:03:17;;;;;;;2.72;0.73;;;15.40;77.00;;;;;;5556077;25;20012;-75
2024/04/11 00:05:42;;;;;;;0.82;0.70;;;15.40;77.30;;;;;;5542292;25;20001;-75
2024/04/11 00:08:08;;;;;;;2.38;0.88;;;15.40;77.40;;;;;;5541616;25;20032;-75
2024/04/11 00:10:33;;;;;;;4.68;1.55;;;15.30;77.50;;;;;;5542297;25;19997;-74
2024/04/11 00:12:59;;;;;;;3.83;1.63;;;15.30;77.30;;;;;;5545077;25;20012;-75
2024/04/11 00:15:25;;;;;;;3.72;1.33;;;15.30;77.50;;;;;;5560073;25;19997;-75
2024/04/11 00:17:50;;;;;;;2.72;0.80;;;15.20;77.80;;;;;;5542859;25;20000;-74
2024/04/11 00:20:16;;;;;;;1.33;1.15;;;15.20;77.80;;;;;;5545687;25;20016;-75
2024/04/11 00:22:41;;;;;;;26.65;1.45;;;15.20;77.60;;;;;;5550627;25;20015;-75
2024/04/11 00:25:07;;;;;;;4.47;1.30;;;15.20;78.10;;;;;;5544654;25;20451;-75
2024/04/11 00:27:36;;;;;;;2.70;0.98;;;15.10;78.00;;;;;;5552758;25;20055;-75
2024/04/11 00:30:02;;;;;;;5.65;1.45;;;15.20;78.20;;;;;;5549272;25;20016;-75
2024/04/11 00:32:28;;;;;;;2.45;0.65;;;15.20;78.10;;;;;;5534131;25;20321;-75
2024/04/11 00:34:53;;;;;;;7.57;1.80;;;15.20;78.30;;;;;;5554150;25;20097;-75
2024/04/11 00:37:22;;;;;;;5.28;1.10;;;15.20;78.60;;;;;;5547754;25;20001;-75
2024/04/11 00:39:48;;;;;;;0.77;0.77;;;15.20;78.60;;;;;;5552936;25;20001;-74
2024/04/11 00:42:13;;;;;;;3.30;1.02;;;15.10;78.70;;;;;;5548011;25;20037;-75
2024/04/11 00:44:39;;;;;;;6.13;1.80;;;15.20;78.60;;;;;;5539970;25;20398;-75
2024/04/11 00:47:09;;;;;;;1.88;0.70;;;15.10;78.70;;;;;;5547184;25;20081;-75
2024/04/11 00:49:36;;;;;;;4.13;1.00;;;15.10;79.00;;;;;;5550104;25;20068;-75
2024/04/11 00:52:03;;;;;;;7.53;1.00;;;15.10;78.70;;;;;;5551678;25;19997;-75
2024/04/11 00:54:29;;;;;;;5.10;1.13;;;15.10;78.40;;;;;;5551313;25;20339;-74
2024/04/11 00:56:59;;;;;;;4.40;1.40;;;15.00;78.80;;;;;;5546755;25;20097;-75
2024/04/11 00:59:24;;;;;;;1.85;1.10;;;15.00;78.80;;;;;;5552612;25;19996;-74
2024/04/11 01:01:51;;;;;;;2.40;0.90;;;15.00;78.80;;;;;;5540777;25;20420;-74
2024/04/11 01:04:20;;;;;;;3.63;1.33;;;15.00;79.20;;;;;;5537190;25;20013;-74
2024/04/11 01:07:06;;;;;;;5.78;1.45;;;14.90;78.90;;;;;;5533094;25;19998;-74
2024/04/11 01:09:34;;;;;;;3.28;0.95;;;14.90;78.90;;;;;;5546226;25;19997;-74
2024/04/11 01:12:00;;;;;;;7.35;1.85;;;14.90;78.50;;;;;;5542212;25;19997;-75
2024/04/11 01:14:26;;;;;;;297.08;123.40;;;14.90;79.40;;;;;;5541932;25;20331;-74
2024/04/11 01:16:53;;;;;;;176.45;35.92;;;14.80;78.80;;;;;;5540735;25;20072;-75
2024/04/11 01:19:19;;;;;;;6.35;1.88;;;14.80;78.90;;;;;;5534084;25;20001;-74
2024/04/11 01:21:46;;;;;;;13.25;2.13;;;14.80;79.10;;;;;;5528821;25;20503;-75
2024/04/11 01:24:13;;;;;;;2.40;1.00;;;14.80;79.10;;;;;;5546907;25;20005;-75
2024/04/11 01:26:39;;;;;;;4.72;1.77;;;14.80;79.20;;;;;;5533439;25;20444;-75
2024/04/11 01:29:07;;;;;;;3.90;1.02;;;14.70;79.10;;;;;;5555507;25;20017;-75
2024/04/11 01:31:33;;;;;;;2.85;1.10;;;14.80;79.40;;;;;;5544035;25;20339;-75
2024/04/11 01:33:59;;;;;;;213.93;8.73;;;14.70;79.30;;;;;;5523391;25;19993;-75
2024/04/11 01:36:25;;;;;;;4.80;1.40;;;14.80;79.50;;;;;;5539419;25;19997;-75
2024/04/11 01:38:51;;;;;;;3.08;1.23;;;14.80;79.60;;;;;;5540228;25;20014;-75
2024/04/11 01:41:16;;;;;;;4.20;1.48;;;14.70;79.20;;;;;;5557449;25;20332;-75
2024/04/11 01:43:42;;;;;;;129.38;2.67;;;14.80;79.40;;;;;;5538993;25;20466;-75
2024/04/11 01:46:08;;;;;;;15.70;1.80;;;14.80;79.60;;;;;;5557967;25;20044;-75
2024/04/11 01:48:33;;;;;;;50.88;4.82;;;14.70;79.40;;;;;;5536872;25;20547;-74
2024/04/11 01:50:59;;;;;;;69.97;3.03;;;14.80;79.50;;;;;;5556683;25;19993;-75
2024/04/11 01:53:26;;;;;;;3.72;1.85;;;14.70;79.60;;;;;;5548037;25;20064;-74
2024/04/11 01:55:53;;;;;;;2.30;1.83;;;14.80;79.80;;;;;;5542887;25;20008;-75
2024/04/11 01:58:22;;;;;;;3.65;1.48;;;14.70;79.80;;;;;;5537870;25;20029;-75
2024/04/11 02:00:48;;;;;;;118.13;3.47;;;14.70;80.20;;;;;;5544597;25;20011;-75
2024/04/11 02:03:14;;;;;;;4.18;1.20;;;14.70;80.20;;;;;;5555584;25;20747;-75
2024/04/11 02:05:42;;;;;;;81.00;6.55;;;14.70;80.30;;;;;;5556130;25;19993;-75
2024/04/11 02:08:08;;;;;;;91.78;4.68;;;14.70;80.40;;;;;;5543488;25;20009;-75
2024/04/11 02:10:35;;;;;;;4.47;1.88;;;14.80;80.50;;;;;;5545667;25;19997;-74
2024/04/11 02:13:01;;;;;;;4.32;1.30;;;14.80;80.50;;;;;;5552617;25;20007;-75
2024/04/11 02:15:27;;;;;;;81.55;4.22;;;14.80;80.40;;;;;;5547104;25;20005;-75
2024/04/11 02:17:53;;;;;;;1.88;0.80;;;14.80;80.60;;;;;;5550262;25;20332;-74
2024/04/11 02:20:20;;;;;;;347.65;15.50;;;14.80;80.40;;;;;;5555014;25;20007;-75
2024/04/11 02:22:46;;;;;;;3.10;1.63;;;14.80;81.30;;;;;;5554866;25;19997;-74
2024/04/11 02:25:13;;;;;;;89.43;3.33;;;14.80;80.70;;;;;;5556500;25;20328;-75
2024/04/11 02:27:40;;;;;;;2.80;0.95;;;14.80;81.00;;;;;;5548945;25;20032;-75
2024/04/11 02:30:09;;;;;;;105.25;3.80;;;14.80;81.00;;;;;;5542641;25;20017;-75
2024/04/11 02:32:41;;;;;;;2.58;1.10;;;14.80;81.00;;;;;;5529303;25;20065;-76
2024/04/11 02:35:11;;;;;;;6.68;1.83;;;14.70;81.00;;;;;;5533020;25;20005;-75
2024/04/11 02:37:38;;;;;;;166.80;7.80;;;14.80;81.20;;;;;;5557290;25;20000;-74
2024/04/11 02:40:07;;;;;;;3.97;1.15;;;14.80;81.30;;;;;;5537304;25;20456;-75
2024/04/11 02:42:36;;;;;;;3.58;1.35;;;14.80;81.20;;;;;;5544538;25;20000;-74
2024/04/11 02:45:02;;;;;;;2.30;1.48;;;14.80;81.20;;;;;;5552000;25;19993;-74
2024/04/11 02:47:29;;;;;;;20.80;7.57;;;14.80;81.30;;;;;;5540236;25;20091;-75
2024/04/11 02:49:56;;;;;;;105.47;7.15;;;14.80;81.60;;;;;;5545951;25;19996;-75
2024/04/11 02:52:24;;;;;;;106.03;4.20;;;14.80;81.70;;;;;;5541148;25;19997;-75
2024/04/11 02:54:50;;;;;;;83.32;3.90;;;14.80;81.50;;;;;;5549096;25;19992;-75
2024/04/11 02:57:16;;;;;;;12.82;1.77;;;14.80;81.40;;;;;;5551548;25;19997;-74
2024/04/11 02:59:43;;;;;;;39.75;1.75;;;14.80;81.80;;;;;;5529478;25;20029;-75
2024/04/11 03:02:10;;;;;;;9.73;1.83;;;14.80;81.70;;;;;;5551139;25;20433;-74
2024/04/11 03:04:35;;;;;;;3.33;0.60;;;14.80;82.00;;;;;;5549880;25;20359;-74
2024/04/11 03:07:01;;;;;;;21.70;1.67;;;14.80;82.30;;;;;;5533680;25;20016;-74
2024/04/11 03:09:27;;;;;;;259.77;14.85;;;14.80;82.30;;;;;;5545749;25;20012;-75
2024/04/11 03:11:52;;;;;;;7.88;1.08;;;14.80;82.70;;;;;;5540092;25;20016;-74
2024/04/11 03:14:18;;;;;;;3.58;1.40;;;14.80;82.80;;;;;;5532680;25;20007;-74
2024/04/11 03:16:44;;;;;;;177.13;6.55;;;14.80;82.80;;;;;;5545474;25;20001;-75
2024/04/11 03:19:09;;;;;;;107.07;6.78;;;14.80;83.00;;;;;;5550567;25;20102;-74
2024/04/11 03:21:35;;;;;;;116.72;7.32;;;14.80;83.10;;;;;;5529248;25;20016;-74
2024/04/11 03:24:00;;;;;;;7.25;1.90;;;14.80;83.20;;;;;;5538429;25;20012;-74
2024/04/11 03:26:26;;;;;;;186.85;4.63;;;14.80;83.30;;;;;;5548112;25;20018;-74
2024/04/11 03:28:53;;;;;;;96.55;5.47;;;14.80;83.60;;;;;;5525717;25;20034;-74
2024/04/11 03:31:21;;;;;;;93.00;3.13;;;14.80;83.70;;;;;;5531696;25;20078;-74
2024/04/11 03:33:46;;;;;;;146.70;5.57;;;14.80;84.00;;;;;;5537193;25;20077;-74
2024/04/11 03:36:15;;;;;;;93.90;3.28;;;14.80;84.30;;;;;;5553545;25;20040;-74
2024/04/11 03:38:41;;;;;;;113.38;6.30;;;14.80;84.30;;;;;;5517141;25;20016;-74
2024/04/11 03:41:08;;;;;;;278.40;5.97;;;14.80;84.70;;;;;;5555485;25;20000;-74
2024/04/11 03:43:34;;;;;;;376.10;25.35;;;14.80;84.60;;;;;;5545196;25;20028;-74
2024/04/11 03:46:09;;;;;;;52.70;3.65;;;14.90;84.70;;;;;;5537198;25;20824;-74
2024/04/11 03:48:36;;;;;;;3.85;1.20;;;14.90;84.90;;;;;;5542314;25;20484;-74
2024/04/11 03:51:13;;;;;;;66.10;4.60;;;14.90;84.90;;;;;;5528525;25;20072;-74
2024/04/11 03:53:40;;;;;;;80.70;2.50;;;14.90;85.60;;;;;;5552822;25;20008;-74
2024/04/11 03:56:09;;;;;;;3.97;1.20;;;14.90;85.10;;;;;;5551990;25;19997;-74
2024/04/11 03:58:38;;;;;;;315.50;13.85;;;14.90;85.30;;;;;;5549604;25;20064;-74
2024/04/11 04:01:15;;;;;;;304.50;8.65;;;14.90;85.40;;;;;;5548149;25;20029;-74
2024/04/11 04:03:46;;;;;;;18.30;1.77;;;14.90;85.60;;;;;;5538434;25;20004;-74
2024/04/11 04:06:13;;;;;;;72.03;2.33;;;14.90;85.80;;;;;;5522743;25;20009;-74
2024/04/11 04:08:44;;;;;;;36.92;2.13;;;14.90;86.10;;;;;;5523475;25;20001;-73
2024/04/11 04:11:13;;;;;;;40.70;2.28;;;14.90;86.00;;;;;;5535242;25;20210;-74
2024/04/11 04:13:40;;;;;;;24.23;2.53;;;14.90;86.10;;;;;;5544739;25;20001;-74
2024/04/11 04:16:10;;;;;;;506.45;13.40;;;14.90;86.30;;;;;;5537799;25;20008;-73
2024/04/11 04:18:36;;;;;;;97.20;3.28;;;14.90;86.40;;;;;;5538924;25;20008;-74
2024/04/11 04:21:04;;;;;;;376.10;13.73;;;14.90;86.30;;;;;;5541807;25;20021;-73
2024/04/11 04:23:30;;;;;;;12.15;1.58;;;14.90;86.30;;;;;;5536120;25;20007;-74
2024/04/11 04:26:05;;;;;;;4.85;1.50;;;14.90;86.50;;;;;;5533624;25;20016;-74
2024/04/11 04:28:35;;;;;;;10.15;2.15;;;14.90;86.40;;;;;;5534820;25;20016;-73
2024/04/11 04:31:22;;;;;;;192.00;5.43;;;14.90;86.80;;;;;;5530171;25;20017;-74
2024/04/11 04:33:50;;;;;;;26.38;5.45;;;14.90;87.40;;;;;;5545758;25;20012;-74
2024/04/11 04:36:18;;;;;;;11.43;4.13;;;14.90;87.80;;;;;;5554762;25;19997;-73
2024/04/11 04:38:45;;;;;;;39.67;3.55;;;14.90;88.10;;;;;;5530501;25;20077;-74
2024/04/11 04:41:12;;;;;;;89.50;4.22;;;14.90;88.50;;;;;;5543813;25;20417;-74
2024/04/11 04:43:39;;;;;;;141.93;4.20;;;14.90;88.60;;;;;;5552396;25;20000;-74
2024/04/11 04:46:05;;;;;;;6.15;1.83;;;14.90;88.80;;;;;;5550875;25;20001;-73
2024/04/11 04:48:32;;;;;;;32.30;2.50;;;14.90;89.10;;;;;;5552100;25;20045;-73
2024/04/11 04:51:01;;;;;;;11.05;1.63;;;14.90;89.20;;;;;;5544587;25;20008;-73
2024/04/11 04:53:27;;;;;;;5.32;1.35;;;14.80;89.30;;;;;;5553927;25;20387;-74
2024/04/11 04:55:52;;;;;;;49.38;15.00;;;14.90;89.60;;;;;;5544012;25;19996;-75
2024/04/11 04:58:19;;;;;;;30.27;10.52;;;14.80;89.80;;;;;;5534614;25;20002;-74
2024/04/11 05:00:46;;;;;;;285.65;12.63;;;14.80;90.10;;;;;;5541347;25;19997;-73
2024/04/11 05:03:12;;;;;;;109.80;7.50;;;14.80;90.20;;;;;;5532812;25;20011;-73
2024/04/11 05:05:38;;;;;;;108.70;5.18;;;14.80;90.40;;;;;;5539905;25;19997;-73
2024/04/11 05:08:07;;;;;;;261.40;7.90;;;14.80;90.50;;;;;;5545898;25;20393;-74
2024/04/11 05:10:40;;;;;;;154.73;14.95;;;14.80;90.50;;;;;;5542233;25;19998;-74
2024/04/11 05:13:09;;;;;;;25.67;1.80;;;14.80;90.60;;;;;;5540883;25;20013;-74
2024/04/11 05:15:38;;;;;;;3.33;1.02;;;14.80;90.60;;;;;;5542406;25;20081;-75
2024/04/11 05:18:05;;;;;;;335.60;7.55;;;14.80;90.80;;;;;;5545217;25;20007;-75
2024/04/11 05:20:33;;;;;;;339.70;8.90;;;14.80;90.70;;;;;;5546453;25;20073;-75
2024/04/11 05:22:59;;;;;;;26.13;2.25;;;14.80;90.80;;;;;;5538353;25;20041;-75
2024/04/11 05:25:26;;;;;;;298.70;6.93;;;14.80;90.80;;;;;;5557033;25;20397;-83
2024/04/11 05:27:53;;;;;;;1.98;1.20;;;14.80;90.90;;;;;;5531920;25;20320;-75
2024/04/11 05:30:19;;;;;;;5.25;1.48;;;14.80;90.90;;;;;;5538046;25;19997;-74
2024/04/11 05:32:46;;;;;;;177.80;7.63;;;14.70;91.00;;;;;;5539633;25;20008;-74
2024/04/11 05:35:13;;;;;;;131.10;20.63;;;14.80;91.10;;;;;;5543771;25;20019;-76
2024/04/11 05:37:45;;;;;;;38.90;2.22;;;14.70;91.20;;;;;;5554121;25;19997;-74
2024/04/11 05:40:14;;;;;;;74.45;7.65;;;14.80;91.30;;;;;;5554125;25;20076;-74
2024/04/11 05:42:45;;;;;;;203.88;5.45;;;14.70;91.40;;;;;;5557469;25;20020;-74
2024/04/11 05:45:11;;;;;;;231.18;9.05;;;14.70;91.50;;;;;;5553191;25;20415;-74
2024/04/11 05:47:37;;;;;;;151.30;7.30;;;14.70;91.60;;;;;;5550953;25;20072;-74
2024/04/11 05:50:04;;;;;;;256.95;5.00;;;14.70;91.60;;;;;;5553128;25;20008;-74
2024/04/11 05:52:31;;;;;;;93.50;2.65;;;14.70;91.70;;;;;;5543833;25;19993;-74
2024/04/11 05:54:58;;;;;;;25.50;2.33;;;14.70;91.70;;;;;;5545547;25;20071;-75
2024/04/11 05:57:24;;;;;;;291.20;9.93;;;14.70;91.80;;;;;;5548418;25;20060;-76
2024/04/11 05:59:51;;;;;;;245.85;18.67;;;14.70;91.80;;;;;;5544736;25;19993;-76
2024/04/11 06:02:17;;;;;;;58.75;2.47;;;14.70;91.80;;;;;;5549374;25;20493;-75
2024/04/11 06:04:43;;;;;;;89.35;3.53;;;14.70;91.90;;;;;;5524324;25;20001;-75
2024/04/11 06:07:09;;;;;;;18.00;1.73;;;14.80;92.00;;;;;;5546461;25;20356;-76
2024/04/11 06:09:35;;;;;;;2.20;1.40;;;14.70;92.00;;;;;;5538858;25;20005;-75
2024/04/11 06:12:01;;;;;;;137.10;4.32;;;14.70;92.10;;;;;;5538907;25;20012;-76
2024/04/11 06:14:28;;;;;;;4.75;1.83;;;14.70;92.20;;;;;;5538547;25;19990;-76
2024/04/11 06:16:54;;;;;;;157.70;7.70;;;14.70;92.30;;;;;;5539286;25;20011;-75
2024/04/11 06:19:20;;;;;;;264.73;12.75;;;14.70;92.40;;;;;;5528349;25;20005;-76
2024/04/11 06:21:53;;;;;;;138.75;14.55;;;14.70;92.50;;;;;;5554393;25;19992;-75
2024/04/11 06:24:20;;;;;;;144.57;10.93;;;14.70;92.50;;;;;;5532605;25;20009;-75
2024/04/11 06:26:46;;;;;;;301.65;12.15;;;14.70;92.60;;;;;;5542072;25;20012;-75
2024/04/11 06:29:11;;;;;;;155.70;13.00;;;14.80;92.70;;;;;;5554518;25;20000;-77
2024/04/11 06:31:38;;;;;;;113.25;5.88;;;14.80;92.90;;;;;;5551763;25;20015;-75
2024/04/11 06:34:04;;;;;;;232.13;7.15;;;14.80;92.70;;;;;;5535744;25;20004;-75
2024/04/11 06:36:33;;;;;;;54.75;3.45;;;14.80;92.80;;;;;;5534423;25;20004;-75
2024/04/11 06:38:59;;;;;;;181.98;5.47;;;14.80;92.80;;;;;;5541468;25;19989;-76
2024/04/11 06:41:27;;;;;;;3.53;1.75;;;14.80;92.90;;;;;;5541844;25;20004;-75
2024/04/11 06:43:53;;;;;;;403.67;22.35;;;14.70;93.00;;;;;;5522610;25;20073;-75
2024/04/11 06:46:19;;;;;;;59.50;2.88;;;14.80;93.10;;;;;;5543988;25;20004;-75
2024/04/11 06:48:45;;;;;;;243.55;23.10;;;14.70;93.20;;;;;;5545030;25;19998;-75
2024/04/11 06:51:16;;;;;;;84.72;8.10;;;14.80;93.30;;;;;;5551246;25;19992;-75
2024/04/11 06:53:45;;;;;;;315.77;9.20;;;14.80;93.30;;;;;;5539093;25;19996;-75
2024/04/11 06:56:11;;;;;;;120.40;17.05;;;14.80;93.30;;;;;;5543452;25;20004;-75
2024/04/11 06:58:40;;;;;;;248.77;11.20;;;14.80;93.30;;;;;;5554345;25;20084;-75
2024/04/11 07:01:08;;;;;;;247.30;13.38;;;14.90;93.40;;;;;;5535709;25;20076;-75
2024/04/11 07:03:39;;;;;;;62.25;4.78;;;14.90;93.40;;;;;;5532376;25;20038;-75
2024/04/11 07:06:22;;;;;;;180.52;14.85;;;14.90;93.50;;;;;;5525899;25;20006;-76
2024/04/11 07:08:55;;;;;;;251.80;6.22;;;14.90;93.50;;;;;;5535196;25;20340;-76
2024/04/11 07:11:27;;;;;;;96.45;3.63;;;14.90;93.60;;;;;;5540167;25;20002;-75
2024/04/11 07:13:58;;;;;;;225.40;9.75;;;14.90;94.00;;;;;;5546537;25;20007;-75
2024/04/11 07:16:29;;;;;;;100.45;4.25;;;14.90;93.80;;;;;;5541696;25;20012;-76
2024/04/11 07:18:55;;;;;;;171.88;7.97;;;14.90;93.90;;;;;;5531271;25;20001;-72
2024/04/11 07:21:25;;;;;;;391.90;35.47;;;14.90;94.00;;;;;;5526735;25;19997;-74
2024/04/11 07:23:57;;;;;;;27.73;4.20;;;14.80;94.00;;;;;;5535845;25;20024;-74
2024/04/11 07:26:30;;;;;;;224.73;6.05;;;14.90;94.20;;;;;;5547201;25;20463;-74
2024/04/11 07:28:59;;;;;;;75.68;2.78;;;14.90;94.20;;;;;;5518740;25;20042;-74
2024/04/11 07:31:25;;;;;;;337.95;18.20;;;14.90;94.30;;;;;;5526275;25;20016;-78
2024/04/11 07:33:51;;;;;;;247.68;12.55;;;14.90;94.40;;;;;;5554689;25;20096;-76
2024/04/11 07:36:21;;;;;;;13.45;3.13;;;14.90;94.50;;;;;;5537552;25;20009;-76
2024/04/11 07:38:47;;;;;;;89.88;7.47;;;14.90;94.60;;;;;;5547313;25;19997;-76
2024/04/11 07:41:16;;;;;;;47.22;5.50;;;15.00;94.70;;;;;;5532625;25;19997;-77
2024/04/11 07:43:55;;;;;;;154.38;21.55;;;14.90;94.70;;;;;;5520814;25;20024;-75
2024/04/11 07:46:28;;;;;;;305.60;31.30;;;14.90;94.70;;;;;;5536861;25;20000;-76
2024/04/11 07:48:56;;;;;;;233.40;8.25;;;14.90;95.10;;;;;;5525097;25;20073;-77
2024/04/11 07:51:22;;;;;;;103.13;4.53;;;15.00;94.90;;;;;;5522798;25;20008;-76
2024/04/11 07:53:49;;;;;;;120.43;13.60;;;15.00;94.90;;;;;;5517561;25;20007;-76
2024/04/11 07:56:23;;;;;;;189.95;10.65;;;15.00;95.00;;;;;;5513364;25;20005;-76
2024/04/11 07:58:49;;;;;;;;;;;15.00;95.00;;;;;;5524316;25;20001;-75
2024/04/11 08:01:16;;;;;;;6.53;2.10;;;15.10;95.00;;;;;;5555684;25;20442;-75
2024/04/11 08:03:43;;;;;;;100.60;4.90;;;15.00;95.10;;;;;;5558213;25;20455;-74
2024/04/11 08:06:10;;;;;;;6.93;2.63;;;15.00;95.20;;;;;;5543312;25;19997;-74
2024/04/11 08:08:40;;;;;;;101.70;6.85;;;15.00;95.30;;;;;;5519942;25;19997;-75
2024/04/11 08:11:06;;;;;;;190.43;11.63;;;15.00;95.30;;;;;;5529739;25;20011;-75
2024/04/11 08:13:38;;;;;;;4.30;2.58;;;15.00;95.40;;;;;;5522106;25;20012;-74
2024/04/11 08:16:09;;;;;;;109.47;3.83;;;15.10;95.50;;;;;;5516474;25;19997;-74
2024/04/11 08:18:34;;;;;;;270.85;7.82;;;15.00;95.60;;;;;;5520078;25;20467;-75
2024/04/11 08:21:03;;;;;;;178.95;10.77;;;15.10;95.70;;;;;;5542754;25;20000;-76
2024/04/11 08:23:29;;;;;;;296.35;11.73;;;15.00;95.70;;;;;;5525216;25;20015;-74
2024/04/11 08:25:58;;;;;;;193.25;15.38;;;15.10;95.90;;;;;;5555009;25;20464;-74
2024/04/11 08:28:23;;;;;;;205.30;11.15;;;15.00;95.90;;;;;;5524044;25;20037;-74
2024/04/11 08:30:51;;;;;;;229.98;11.43;;;15.10;96.00;;;;;;5542519;25;20000;-75
2024/04/11 08:33:20;;;;;;;4.45;2.92;;;15.10;96.00;;;;;;5520923;25;20501;-72
2024/04/11 08:35:52;;;;;;;392.73;11.38;;;15.10;96.20;;;;;;5554942;25;20001;-75
2024/04/11 08:38:23;;;;;;;3.65;2.13;;;15.10;96.40;;;;;;5549599;25;20057;-75
2024/04/11 08:40:49;;;;;;;234.75;6.10;;;15.10;96.40;;;;;;5554858;25;20000;-75
2024/04/11 08:43:20;;;;;;;8.38;2.55;;;15.20;96.50;;;;;;5554863;25;19996;-75
2024/04/11 08:45:46;;;;;;;111.88;6.30;;;15.20;96.60;;;;;;5537240;25;20430;-75
2024/04/11 08:48:12;;;;;;;39.90;3.33;;;15.20;96.60;;;;;;5548215;25;19997;-75
2024/04/11 08:50:41;;;;;;;236.40;16.50;;;15.20;96.70;;;;;;5536662;25;20562;-75
2024/04/11 08:53:12;;;;;;;3.75;2.50;;;15.20;97.00;;;;;;5515485;25;20005;-75
2024/04/11 08:55:40;;;;;;;38.78;4.57;;;15.20;96.80;;;;;;5515971;25;19998;-75
2024/04/11 08:58:08;;;;;;;198.60;14.80;;;15.30;96.80;;;;;;5514638;25;20001;-75
2024/04/11 09:00:40;;;;;;;61.75;10.50;;;15.30;96.90;;;;;;5539152;25;20007;-75
2024/04/11 09:03:11;;;;;;;51.90;3.40;;;15.30;96.90;;;;;;5529647;25;20543;-74
2024/04/11 09:05:38;;;;;;;241.48;8.15;;;15.30;96.90;;;;;;5547195;25;20462;-74
2024/04/11 09:08:05;;;;;;;103.95;10.32;;;15.40;96.90;;;;;;5519709;25;19998;-74
2024/04/11 09:10:31;;;;;;;27.52;3.60;;;15.40;96.90;;;;;;5520189;25;20496;-74
2024/04/11 09:12:59;;;;;;;138.75;7.93;;;15.40;96.90;;;;;;5522736;25;20002;-74
2024/04/11 09:15:25;;;;;;;253.15;7.57;;;15.50;97.00;;;;;;5525700;25;19997;-74
2024/04/11 09:17:54;;;;;;;96.57;5.10;;;15.50;97.00;;;;;;5529546;25;20340;-75
2024/04/11 09:20:23;;;;;;;9.38;3.25;;;15.50;97.10;;;;;;5527436;25;20001;-74
2024/04/11 09:22:50;;;;;;;94.85;5.90;;;15.50;97.20;;;;;;5519458;25;20008;-74
2024/04/11 09:25:22;;;;;;;5.65;2.67;;;15.50;97.20;;;;;;5535422;25;19997;-74
2024/04/11 09:27:54;;;;;;;181.32;5.55;;;15.50;97.30;;;;;;5517507;25;20016;-75
2024/04/11 09:30:21;;;;;;;171.77;7.32;;;15.50;97.40;;;;;;5531765;25;20005;-74
2024/04/11 09:32:49;;;;;;;83.10;4.53;;;15.50;97.40;;;;;;5538245;25;20015;-74
2024/04/11 09:35:20;;;;;;;89.95;8.13;;;15.60;97.40;;;;;;5538372;25;20094;-74
2024/04/11 09:37:50;;;;;;;408.73;11.98;;;15.60;97.50;;;;;;5519285;25;20001;-74
2024/04/11 09:40:26;;;;;;;127.07;8.27;;;15.60;97.50;;;;;;5552033;25;20040;-75
2024/04/11 09:43:03;;;;;;;189.98;21.30;;;15.70;97.60;;;;;;5554053;25;20439;-73
2024/04/11 09:45:32;;;;;;;150.95;10.32;;;15.70;97.60;;;;;;5529536;25;20020;-73
2024/04/11 09:48:02;;;;;;;444.08;11.20;;;15.70;97.70;;;;;;5524817;25;20081;-76
2024/04/11 09:50:30;;;;;;;287.65;18.48;;;15.80;97.80;;;;;;5519755;25;20096;-76
2024/04/11 09:52:59;;;;;;;175.82;7.93;;;15.80;97.80;;;;;;5516728;25;20016;-75
2024/04/11 09:55:33;;;;;;;15.85;3.17;;;15.80;97.90;;;;;;5540403;25;20040;-75
2024/04/11 09:58:01;;;;;;;69.05;3.92;;;15.80;97.90;;;;;;5486067;25;19990;-75
2024/04/11 10:03:19;;;;;;;283.25;10.60;;;15.80;98.00;;;;;;5522883;25;20082;-73
2024/04/11 10:05:51;;;;;;;252.68;22.00;;;15.90;98.00;;;;;;5520560;25;20565;-73
2024/04/11 10:08:27;;;;;;;531.35;17.05;;;15.90;98.00;;;;;;5523959;25;20012;-71
2024/04/11 10:10:54;;;;;;;352.95;27.98;;;16.00;98.00;;;;;;5519298;25;20444;-72
2024/04/11 10:13:23;;;;;;;77.07;3.92;;;16.00;98.00;;;;;;5523117;25;20012;-72
2024/04/11 10:16:06;;;;;;;154.65;7.60;;;16.00;98.10;;;;;;5524275;25;20352;-73
2024/04/11 10:18:45;;;;;;;3.33;2.22;;;16.00;98.10;;;;;;5544406;25;20012;-72
2024/04/11 10:21:12;;;;;;;128.70;5.00;;;16.10;98.20;;;;;;5535941;25;20485;-72
2024/04/11 10:23:38;;;;;;;684.35;18.23;;;16.10;98.20;;;;;;5531871;25;20004;-72
2024/04/11 10:26:14;;;;;;;346.10;16.25;;;16.10;98.30;;;;;;5556852;25;20011;-72
2024/04/11 10:28:51;;;;;;;348.50;18.90;;;16.20;98.40;;;;;;5522477;25;20337;-72
2024/04/11 10:31:25;;;;;;;143.32;4.97;;;16.20;98.40;;;;;;5520542;25;20004;-72
2024/04/11 10:34:03;;;;;;;93.10;3.55;;;16.20;98.40;;;;;;5532647;25;20026;-72
2024/04/11 10:36:35;;;;;;;351.23;18.27;;;16.20;98.50;;;;;;5528196;25;20073;-72
2024/04/11 10:39:02;;;;;;;153.13;11.45;;;16.30;98.50;;;;;;5548019;25;20015;-72
2024/04/11 10:41:32;;;;;;;96.65;3.88;;;16.30;98.50;;;;;;5534544;25;20005;-72
2024/04/11 10:44:02;;;;;;;173.45;9.10;;;16.20;98.50;;;;;;5519554;25;20020;-72
2024/04/11 10:46:30;;;;;;;207.20;8.75;;;16.30;98.60;;;;;;5525725;25;20005;-72
2024/04/11 10:49:08;;;;;;;171.05;7.82;;;16.30;98.60;;;;;;5547709;25;20345;-72
2024/04/11 10:51:37;;;;;;;36.75;3.53;;;16.30;98.60;;;;;;5529740;25;20072;-72
2024/04/11 10:54:09;;;;;;;314.63;10.30;;;16.40;98.70;;;;;;5530242;25;20380;-72
2024/04/11 10:56:43;;;;;;;5.05;2.25;;;16.40;98.70;;;;;;5520464;25;20516;-71
2024/04/11 10:59:18;;;;;;;133.20;4.55;;;16.40;98.70;;;;;;5537371;25;20008;-72
2024/04/11 11:01:51;;;;;;;132.07;9.05;;;16.40;98.70;;;;;;5557864;25;20447;-73
2024/04/11 11:04:20;;;;;;;126.20;8.80;;;16.40;98.70;;;;;;5549989;25;20073;-72
2024/04/11 11:06:54;;;;;;;107.25;4.43;;;16.40;98.70;;;;;;5523225;25;20012;-73
2024/04/11 11:09:22;;;;;;;271.92;24.98;;;16.40;98.70;;;;;;5553118;25;20037;-74
2024/04/11 11:11:49;;;;;;;548.17;26.13;;;16.50;98.70;;;;;;5558356;25;20000;-73
2024/04/11 11:14:20;;;;;;;89.05;4.43;;;16.50;98.80;;;;;;5554345;25;19992;-73
2024/04/11 11:16:47;;;;;;;144.15;7.22;;;16.50;98.80;;;;;;5518689;25;20087;-74
2024/04/11 11:19:16;;;;;;;237.45;13.23;;;16.50;98.80;;;;;;5552918;25;20007;-75
2024/04/11 11:21:51;;;;;;;124.20;9.85;;;16.60;98.80;;;;;;5552738;25;20015;-73
2024/04/11 11:24:26;;;;;;;236.77;22.65;;;16.60;98.80;;;;;;5528186;25;19998;-74
2024/04/11 11:27:02;;;;;;;9.20;3.83;;;16.60;98.80;;;;;;5529187;25;20008;-72
2024/04/11 11:29:29;;;;;;;6.47;3.67;;;16.60;98.80;;;;;;5530280;25;19997;-74
2024/04/11 11:32:04;;;;;;;246.52;7.40;;;16.60;98.80;;;;;;5529092;25;20012;-74
2024/04/11 11:34:42;;;;;;;258.88;12.35;;;16.60;98.80;;;;;;5548561;25;19996;-74
2024/04/11 11:37:12;;;;;;;245.75;7.57;;;16.70;98.90;;;;;;5529322;25;20012;-74
2024/04/11 11:39:43;;;;;;;131.85;6.63;;;16.70;98.90;;;;;;5528566;25;19998;-72
2024/04/11 11:42:10;;;;;;;133.18;5.88;;;16.70;98.90;;;;;;5527278;25;20008;-72
2024/04/11 11:47:37;;;;;;;184.60;5.35;;;16.70;98.90;;;;;;5459849;25;20007;-72
2024/04/11 11:50:18;;;;;;;206.27;6.40;;;16.70;98.90;;;;;;5552251;25;20008;-72
2024/04/11 11:52:49;;;;;;;443.52;10.88;;;16.80;99.00;;;;;;5553243;25;20033;-72
2024/04/11 11:55:17;;;;;;;333.67;10.73;;;16.80;99.00;;;;;;5529101;25;20017;-72
2024/04/11 11:57:44;;;;;;;351.48;12.60;;;16.80;99.10;;;;;;5517840;25;20456;-72
2024/04/11 12:00:18;;;;;;;425.92;27.40;;;16.80;99.00;;;;;;5536816;25;20001;-74
2024/04/11 12:02:50;;;;;;;288.60;13.43;;;16.90;99.00;;;;;;5523113;25;20020;-72
2024/04/11 12:05:23;;;;;;;135.68;7.70;;;16.90;99.00;;;;;;5541707;25;20452;-72
2024/04/11 12:07:59;;;;;;;90.82;6.75;;;16.90;98.90;;;;;;5516920;25;20012;-72
2024/04/11 12:13:19;;;;;;;218.43;19.75;;;17.00;98.90;;;;;;5527238;25;20303;-72
2024/04/11 12:15:48;;;;;;;164.88;12.55;;;17.00;98.90;;;;;;5533208;25;20073;-72
2024/04/11 12:18:24;;;;;;;93.82;16.30;;;17.10;98.90;;;;;;5543184;25;20068;-72
2024/04/11 12:20:54;;;;;;;281.00;10.18;;;17.10;98.80;;;;;;5539321;25;19993;-72
2024/04/11 12:23:21;;;;;;;378.77;11.18;;;17.10;98.80;;;;;;5543174;25;19997;-72
2024/04/11 12:25:47;;;;;;;266.48;8.23;;;17.20;98.80;;;;;;5554974;25;20001;-72
2024/04/11 12:28:12;;;;;;;205.05;7.00;;;17.20;98.80;;;;;;5552368;25;20068;-72
2024/04/11 12:30:40;;;;;;;488.05;18.25;;;17.20;98.70;;;;;;5536841;25;20001;-72
2024/04/11 12:33:08;;;;;;;137.77;14.00;;;17.20;98.60;;;;;;5538444;25;20005;-72
2024/04/11 12:35:54;;;;;;;171.48;10.70;;;17.30;98.60;;;;;;5536420;25;20024;-72
2024/04/11 12:38:21;;;;;;;259.88;25.52;;;17.30;98.60;;;;;;5518695;25;20367;-72
2024/04/11 12:40:50;;;;;;;357.95;21.17;;;17.40;98.70;;;;;;5541808;25;20000;-72
2024/04/11 12:43:17;;;;;;;237.57;28.85;;;17.40;98.60;;;;;;5524291;25;20072;-71
2024/04/11 12:46:01;;;;;;;170.40;13.75;;;17.40;98.60;;;;;;5533133;25;20001;-72
2024/04/11 12:48:34;;;;;;;93.57;8.75;;;17.40;98.50;;;;;;5545747;25;20009;-72